createdAt,value
2023-04-01T00:00:29.657Z,101399.06
2023-04-01T00:02:57.659Z,101398.22
2023-04-01T00:05:39.741Z,101398.06
2023-04-01T00:08:07.145Z,101393.94
2023-04-01T00:10:34.090Z,101394.66
2023-04-01T00:13:01.685Z,101392.94
2023-04-01T00:15:28.580Z,101404.69
2023-04-01T00:17:56.106Z,101400.28
2023-04-01T00:20:31.991Z,101395.91
2023-04-01T00:22:59.046Z,101394.91
2023-04-01T00:25:26.178Z,101399.59
2023-04-01T00:27:53.972Z,101388.81
2023-04-01T00:30:21.176Z,101383.44
2023-04-01T00:32:48.171Z,101381.72
2023-04-01T00:35:15.141Z,101379.03
2023-04-01T00:37:42.058Z,101379.56
2023-04-01T00:40:22.802Z,101359.28
2023-04-01T00:42:49.823Z,101358.97
2023-04-01T00:45:41.500Z,101358.97
2023-04-01T00:48:12.819Z,101362.66
2023-04-01T00:50:44.342Z,101362.75
2023-04-01T00:53:12.175Z,101358.75
2023-04-01T00:55:45.333Z,101359.59
2023-04-01T00:58:17.855Z,101360.59
2023-04-01T01:00:46.602Z,101354.03
2023-04-01T01:03:13.849Z,101361.94
2023-04-01T01:06:09.163Z,101362.56
2023-04-01T01:08:53.776Z,101373.56
2023-04-01T01:11:43.249Z,101370.16
2023-04-01T01:14:52.654Z,101370.00
2023-04-01T01:17:39.894Z,101360.13
2023-04-01T01:20:34.408Z,101366.50
2023-04-01T01:23:10.647Z,101358.22
2023-04-01T01:25:56.825Z,101358.81
2023-04-01T01:28:57.053Z,101362.50
2023-04-01T01:31:32.085Z,101363.34
2023-04-01T01:33:58.958Z,101365.03
2023-04-01T01:36:29.761Z,101363.34
2023-04-01T01:38:58.760Z,101364.06
2023-04-01T01:41:28.123Z,101363.34
2023-04-01T01:43:59.864Z,101363.34
2023-04-01T01:46:30.407Z,101362.34
2023-04-01T01:49:00.547Z,101361.63
2023-04-01T01:51:29.148Z,101357.97
2023-04-01T01:53:56.255Z,101359.91
2023-04-01T01:56:29.022Z,101359.81
2023-04-01T01:59:04.599Z,101362.34
2023-04-01T02:01:36.970Z,101365.03
2023-04-01T02:04:14.325Z,101348.91
2023-04-01T02:06:48.308Z,101341.97
2023-04-01T02:09:15.970Z,101349.16
2023-04-01T02:11:53.355Z,101349.16
2023-04-01T02:14:36.108Z,101342.22
2023-04-01T02:17:08.096Z,101344.06
2023-04-01T02:19:44.245Z,101355.66
2023-04-01T02:22:17.594Z,101347.44
2023-04-01T02:24:46.521Z,101346.47
2023-04-01T02:27:13.977Z,101345.16
2023-04-01T02:29:41.180Z,101337.94
2023-04-01T02:32:10.448Z,101338.41
2023-04-01T02:34:38.198Z,101342.34
2023-04-01T02:37:05.497Z,101347.00
2023-04-01T02:39:32.617Z,101349.94
2023-04-01T02:41:59.686Z,101347.25
2023-04-01T02:44:26.753Z,101342.63
2023-04-01T02:46:54.115Z,101340.75
2023-04-01T02:49:21.201Z,101343.78
2023-04-01T02:51:48.213Z,101352.59
2023-04-01T02:54:15.816Z,101348.91
2023-04-01T02:56:43.840Z,101346.94
2023-04-01T02:59:10.944Z,101341.56
2023-04-01T03:01:38.009Z,101336.06
2023-04-01T03:04:05.578Z,101328.25
2023-04-01T03:06:32.545Z,101336.97
2023-04-01T03:08:59.445Z,101327.06
2023-04-01T03:11:27.416Z,101327.19
2023-04-01T03:13:54.681Z,101331.00
2023-04-01T03:16:21.686Z,101335.53
2023-04-01T03:18:51.765Z,101343.81
2023-04-01T03:21:21.828Z,101335.69
2023-04-01T03:23:49.007Z,101330.31
2023-04-01T03:26:16.622Z,101332.28
2023-04-01T03:28:44.455Z,101324.81
2023-04-01T03:31:11.820Z,101326.78
2023-04-01T03:33:45.562Z,101328.50
2023-04-01T03:36:13.938Z,101334.84
2023-04-01T03:38:45.698Z,101342.44
2023-04-01T03:41:17.421Z,101335.34
2023-04-01T03:43:45.181Z,101340.72
2023-04-01T03:46:12.622Z,101331.44
2023-04-01T03:48:39.766Z,101329.00
2023-04-01T03:51:09.952Z,101330.47
2023-04-01T03:53:37.253Z,101327.22
2023-04-01T03:56:10.222Z,101332.59
2023-04-01T03:58:37.750Z,101327.50
2023-04-01T04:01:26.295Z,101322.47
2023-04-01T04:03:57.358Z,101321.84
2023-04-01T04:06:25.175Z,101328.72
2023-04-01T04:08:53.111Z,101322.47
2023-04-01T04:11:22.108Z,101323.06
2023-04-01T04:13:53.321Z,101323.06
2023-04-01T04:16:20.982Z,101332.97
2023-04-01T04:18:55.036Z,101337.47
2023-04-01T04:21:21.977Z,101326.72
2023-04-01T04:23:48.932Z,101337.34
2023-04-01T04:26:18.621Z,101324.78
2023-04-01T04:28:54.683Z,101314.03
2023-04-01T04:31:25.602Z,101317.69
2023-04-01T04:33:55.436Z,101313.44
2023-04-01T04:36:23.043Z,101321.34
2023-04-01T04:38:51.662Z,101321.94
2023-04-01T04:41:20.470Z,101318.28
2023-04-01T04:43:55.383Z,101312.03
2023-04-01T04:46:24.959Z,101312.91
2023-04-01T04:48:58.413Z,101301.06
2023-04-01T04:51:26.448Z,101303.00
2023-04-01T04:53:53.457Z,101307.69
2023-04-01T04:56:29.877Z,101305.81
2023-04-01T04:59:08.627Z,101305.22
2023-04-01T05:01:58.815Z,101312.31
2023-04-01T05:04:25.783Z,101305.50
2023-04-01T05:06:52.884Z,101308.19
2023-04-01T05:09:20.028Z,101317.69
2023-04-01T05:11:46.902Z,101320.09
2023-04-01T05:14:16.091Z,101324.50
2023-04-01T05:16:46.808Z,101330.75
2023-04-01T05:19:14.286Z,101336.13
2023-04-01T05:21:41.149Z,101322.94
2023-04-01T05:24:11.725Z,101319.41
2023-04-01T05:26:39.654Z,101323.06
2023-04-01T05:29:06.803Z,101315.97
2023-04-01T05:31:34.112Z,101324.44
2023-04-01T05:34:01.655Z,101322.72
2023-04-01T05:36:28.784Z,101317.34
2023-04-01T05:38:57.549Z,101324.09
2023-04-01T05:41:26.806Z,101313.88
2023-04-01T05:43:53.711Z,101316.03
2023-04-01T05:46:39.114Z,101321.66
2023-04-01T05:49:35.214Z,101328.75
2023-04-01T05:52:03.950Z,101339.38
2023-04-01T05:54:32.205Z,101332.88
2023-04-01T05:56:59.204Z,101335.56
2023-04-01T05:59:26.303Z,101334.59
2023-04-01T06:01:54.026Z,101341.19
2023-04-01T06:04:21.344Z,101348.41
2023-04-01T06:06:48.302Z,101348.16
2023-04-01T06:09:20.601Z,101345.72
2023-04-01T06:12:14.259Z,101342.81
2023-04-01T06:15:01.182Z,101353.19
2023-04-01T06:17:57.065Z,101350.28
2023-04-01T06:20:38.445Z,101351.00
2023-04-01T06:23:35.905Z,101353.69
2023-04-01T06:26:25.819Z,101347.34
2023-04-01T06:29:27.255Z,101347.59
2023-04-01T06:32:13.796Z,101336.59
2023-04-01T06:34:59.852Z,101328.31
2023-04-01T06:37:48.469Z,101341.59
2023-04-01T06:40:22.824Z,101339.66
2023-04-01T06:43:10.970Z,101341.22
2023-04-01T06:46:18.848Z,101345.63
2023-04-01T06:49:14.293Z,101344.66
2023-04-01T06:52:35.296Z,101344.16
2023-04-01T06:55:51.179Z,101354.06
2023-04-01T06:58:42.921Z,101353.19
2023-04-01T07:02:00.699Z,101356.63
2023-04-01T07:04:32.834Z,101343.44
2023-04-01T07:07:21.602Z,101342.47
2023-04-01T07:10:00.424Z,101336.22
2023-04-01T07:12:34.985Z,101338.81
2023-04-01T07:15:22.231Z,101345.88
2023-04-01T07:18:13.293Z,101330.00
2023-04-01T07:20:40.944Z,101331.97
2023-04-01T07:23:18.083Z,101332.69
2023-04-01T07:26:01.557Z,101340.28
2023-04-01T07:28:35.284Z,101343.56
2023-04-01T07:31:26.526Z,101343.56
2023-04-01T07:34:21.853Z,101350.03
2023-04-01T07:37:03.801Z,101348.69
2023-04-01T07:39:37.124Z,101349.28
2023-04-01T07:42:38.747Z,101344.66
2023-04-01T07:45:28.011Z,101349.06
2023-04-01T07:48:26.499Z,101349.75
2023-04-01T07:50:58.320Z,101342.09
2023-04-01T07:53:31.351Z,101346.59
2023-04-01T07:56:13.293Z,101361.50
2023-04-01T07:58:56.975Z,101356.13
2023-04-01T08:02:02.673Z,101362.69
2023-04-01T08:04:36.366Z,101365.13
2023-04-01T08:07:27.532Z,101361.97
2023-04-01T08:10:24.572Z,101357.56
2023-04-01T08:13:22.207Z,101360.00
2023-04-01T08:16:33.222Z,101356.34
2023-04-01T08:19:43.413Z,101361.09
2023-04-01T08:22:30.418Z,101363.69
2023-04-01T08:25:05.305Z,101358.03
2023-04-01T08:27:54.766Z,101361.19
2023-04-01T08:30:27.191Z,101359.25
2023-04-01T08:33:06.267Z,101357.03
2023-04-01T08:35:42.803Z,101349.16
2023-04-01T08:38:19.564Z,101350.88
2023-04-01T08:41:14.687Z,101347.22
2023-04-01T08:45:05.087Z,101356.00
2023-04-01T08:47:56.485Z,101352.59
2023-04-01T08:50:35.849Z,101348.38
2023-04-01T08:53:12.645Z,101348.16
2023-04-01T08:56:21.806Z,101331.34
2023-04-01T08:59:15.644Z,101332.59
2023-04-01T09:02:11.479Z,101337.41
2023-04-01T09:05:04.459Z,101343.44
2023-04-01T09:08:02.770Z,101346.56
2023-04-01T09:10:29.943Z,101355.09
2023-04-01T09:13:38.687Z,101359.69
2023-04-01T09:16:24.433Z,101348.41
2023-04-01T09:19:32.638Z,101340.78
2023-04-01T09:22:22.572Z,101346.16
2023-04-01T09:25:24.301Z,101346.53
2023-04-01T09:28:29.758Z,101348.00
2023-04-01T09:31:00.167Z,101346.50
2023-04-01T09:33:49.141Z,101339.31
2023-04-01T09:36:28.207Z,101342.72
2023-04-01T09:38:55.422Z,101349.97
2023-04-01T09:41:55.585Z,101346.34
2023-04-01T09:45:20.146Z,101345.50
2023-04-01T09:48:14.242Z,101341.03
2023-04-01T09:50:41.477Z,101338.13
2023-04-01T09:53:26.836Z,101334.13
2023-04-01T09:56:32.968Z,101335.06
2023-04-01T09:59:21.804Z,101344.25
2023-04-01T10:02:58.295Z,101330.03
2023-04-01T10:05:43.061Z,101336.19
2023-04-01T10:08:20.327Z,101328.31
2023-04-01T10:11:11.616Z,101324.00
2023-04-01T10:13:57.658Z,101323.06
2023-04-01T10:16:46.964Z,101333.81
2023-04-01T10:19:32.031Z,101331.03
2023-04-01T10:22:18.006Z,101333.38
2023-04-01T10:24:49.638Z,101334.34
2023-04-01T10:27:35.102Z,101328.09
2023-04-01T10:30:07.461Z,101321.22
2023-04-01T10:32:47.115Z,101317.94
2023-04-01T10:35:39.213Z,101315.00
2023-04-01T10:38:18.035Z,101311.41
2023-04-01T10:41:04.199Z,101320.47
2023-04-01T10:43:52.941Z,101312.00
2023-04-01T10:46:38.401Z,101304.47
2023-04-01T10:49:29.539Z,101299.22
2023-04-01T10:52:06.317Z,101296.19
2023-04-01T10:55:16.681Z,101284.94
2023-04-01T10:58:21.659Z,101273.75
2023-04-01T11:01:28.756Z,101265.53
2023-04-01T11:04:32.709Z,101264.09
2023-04-01T11:07:31.452Z,101252.66
2023-04-01T11:10:16.467Z,101245.13
2023-04-01T11:13:07.754Z,101244.22
2023-04-01T11:16:11.979Z,101233.75
2023-04-01T11:19:06.093Z,101218.78
2023-04-01T11:21:39.015Z,101216.31
2023-04-01T11:24:43.313Z,101215.38
2023-04-01T11:28:07.259Z,101217.06
2023-04-01T11:30:43.608Z,101220.38
2023-04-01T11:33:22.101Z,101204.78
2023-04-01T11:36:11.620Z,101198.78
2023-04-01T11:39:04.498Z,101194.06
2023-04-01T11:42:18.929Z,101189.09
2023-04-01T11:45:30.143Z,101188.00
2023-04-01T11:48:28.711Z,101205.66
2023-04-01T11:51:21.086Z,101210.03
2023-04-01T11:54:18.461Z,101192.13
2023-04-01T11:57:18.775Z,101195.25
2023-04-01T12:00:19.294Z,101194.94
2023-04-01T12:02:57.924Z,101201.69
2023-04-01T12:05:51.274Z,101190.31
2023-04-01T12:08:42.888Z,101185.66
2023-04-01T12:11:37.935Z,101195.00
2023-04-01T12:14:31.972Z,101187.19
2023-04-01T12:17:10.744Z,101166.63
2023-04-01T12:19:54.874Z,101160.53
2023-04-01T12:22:36.448Z,101167.66
2023-04-01T12:25:18.548Z,101162.38
2023-04-01T12:27:59.953Z,101160.69
2023-04-01T12:30:32.771Z,101163.50
2023-04-01T12:33:24.400Z,101143.84
2023-04-01T12:36:33.150Z,101158.09
2023-04-01T12:39:37.790Z,101147.25
2023-04-01T12:42:30.215Z,101151.72
2023-04-01T12:45:18.567Z,101132.47
2023-04-01T12:48:12.006Z,101134.94
2023-04-01T12:51:03.948Z,101126.59
2023-04-01T12:53:58.856Z,101124.34
2023-04-01T12:56:44.372Z,101120.75
2023-04-01T12:59:48.172Z,101109.72
2023-04-01T13:02:30.710Z,101090.78
2023-04-01T13:04:58.798Z,101095.44
2023-04-01T13:07:46.587Z,101085.34
2023-04-01T13:10:38.475Z,101082.53
2023-04-01T13:13:05.496Z,101077.41
2023-04-01T13:15:44.801Z,101072.72
2023-04-01T13:18:23.962Z,101064.34
2023-04-01T13:21:07.413Z,101056.94
2023-04-01T13:23:50.035Z,101048.00
2023-04-01T13:26:35.825Z,101050.97
2023-04-01T13:29:15.446Z,101040.69
2023-04-01T13:32:17.981Z,101038.16
2023-04-01T13:35:09.802Z,101032.28
2023-04-01T13:37:44.464Z,101034.28
2023-04-01T13:41:02.346Z,101035.34
2023-04-01T13:43:40.939Z,101019.41
2023-04-01T13:46:36.292Z,101024.50
2023-04-01T13:49:13.241Z,101013.16
2023-04-01T13:51:40.343Z,101001.63
2023-04-01T13:54:22.183Z,100994.03
2023-04-01T13:57:15.799Z,100992.47
2023-04-01T14:00:07.514Z,100999.72
2023-04-01T14:03:14.722Z,100979.44
2023-04-01T14:06:00.616Z,100974.09
2023-04-01T14:09:09.278Z,100968.19
2023-04-01T14:12:07.536Z,100989.09
2023-04-01T14:14:40.736Z,100988.03
2023-04-01T14:17:25.600Z,101003.91
2023-04-01T14:19:52.395Z,100985.03
2023-04-01T14:22:45.211Z,100977.06
2023-04-01T14:25:50.033Z,100952.72
2023-04-01T14:28:43.017Z,100947.31
2023-04-01T14:31:35.649Z,100965.31
2023-04-01T14:34:05.910Z,100958.50
2023-04-01T14:36:58.346Z,100953.16
2023-04-01T14:39:37.395Z,100957.44
2023-04-01T14:42:28.517Z,100970.34
2023-04-01T14:45:03.176Z,100973.53
2023-04-01T14:47:43.297Z,100959.44
2023-04-01T14:50:41.724Z,100976.53
2023-04-01T14:53:08.547Z,100961.25
2023-04-01T14:55:44.604Z,100938.34
2023-04-01T14:58:20.691Z,100946.81
2023-04-01T15:00:50.397Z,100941.84
2023-04-01T15:03:35.023Z,100916.59
2023-04-01T15:06:26.939Z,100929.44
2023-04-01T15:09:08.915Z,100933.47
2023-04-01T15:12:01.759Z,100938.69
2023-04-01T15:14:28.568Z,100943.28
2023-04-01T15:17:15.624Z,100937.88
2023-04-01T15:20:03.439Z,100928.31
2023-04-01T15:22:59.510Z,100935.72
2023-04-01T15:25:37.125Z,100929.13
2023-04-01T15:28:12.267Z,100935.53
2023-04-01T15:31:06.155Z,100920.31
2023-04-01T15:34:10.131Z,100916.13
2023-04-01T15:36:56.055Z,100915.47
2023-04-01T15:39:32.295Z,100910.56
2023-04-01T15:42:35.640Z,100903.97
2023-04-01T15:45:27.309Z,100900.28
2023-04-01T15:48:08.347Z,100902.81
2023-04-01T15:51:02.239Z,100889.81
2023-04-01T15:53:45.979Z,100894.44
2023-04-01T15:56:42.456Z,100915.69
2023-04-01T15:59:15.812Z,100926.19
2023-04-01T16:02:03.990Z,100899.16
2023-04-01T16:04:46.482Z,100903.69
2023-04-01T16:07:22.596Z,100901.97
2023-04-01T16:10:19.166Z,100893.06
2023-04-01T16:13:01.074Z,100891.47
2023-04-01T16:15:38.711Z,100897.25
2023-04-01T16:18:23.394Z,100896.84
2023-04-01T16:21:06.103Z,100884.44
2023-04-01T16:23:44.802Z,100884.84
2023-04-01T16:26:38.211Z,100869.53
2023-04-01T16:29:39.560Z,100880.13
2023-04-01T16:32:38.213Z,100870.66
2023-04-01T16:35:42.754Z,100856.81
2023-04-01T16:38:32.221Z,100871.97
2023-04-01T16:41:20.350Z,100843.25
2023-04-01T16:43:58.248Z,100843.50
2023-04-01T16:46:40.431Z,100833.84
2023-04-01T16:49:13.058Z,100841.38
2023-04-01T16:51:52.735Z,100850.78
2023-04-01T16:54:22.694Z,100833.59
2023-04-01T16:56:55.526Z,100836.25
2023-04-01T16:59:32.642Z,100829.16
2023-04-01T17:02:14.651Z,100831.31
2023-04-01T17:04:46.029Z,100827.91
2023-04-01T17:07:40.277Z,100846.97
2023-04-01T17:10:52.163Z,100837.25
2023-04-01T17:13:34.072Z,100836.66
2023-04-01T17:16:06.811Z,100824.75
2023-04-01T17:18:42.703Z,100799.25
2023-04-01T17:21:24.214Z,100804.91
2023-04-01T17:24:10.924Z,100796.00
2023-04-01T17:26:47.300Z,100803.44
2023-04-01T17:29:27.992Z,100809.72
2023-04-01T17:32:04.041Z,100816.28
2023-04-01T17:34:57.354Z,100794.31
2023-04-01T17:37:34.558Z,100803.16
2023-04-01T17:40:01.522Z,100807.44
2023-04-01T17:42:57.024Z,100808.50
2023-04-01T17:45:43.903Z,100824.88
2023-04-01T17:48:25.485Z,100846.56
2023-04-01T17:51:11.208Z,100862.44
2023-04-01T17:54:01.140Z,100855.19
2023-04-01T17:56:56.802Z,100863.56
2023-04-01T17:59:37.064Z,100862.09
2023-04-01T18:02:28.185Z,100857.28
2023-04-01T18:05:04.363Z,100868.09
2023-04-01T18:07:41.865Z,100872.38
2023-04-01T18:10:24.969Z,100867.53
2023-04-01T18:13:10.909Z,100862.47
2023-04-01T18:16:12.363Z,100886.53
2023-04-01T18:18:49.693Z,100894.47
2023-04-01T18:21:32.400Z,100886.53
2023-04-01T18:24:14.348Z,100895.88
2023-04-01T18:26:45.229Z,100900.97
2023-04-01T18:29:14.842Z,100899.81
2023-04-01T18:31:47.319Z,100869.50
2023-04-01T18:34:35.419Z,100893.69
2023-04-01T18:37:15.530Z,100928.44
2023-04-01T18:39:53.449Z,100930.69
2023-04-01T18:42:51.728Z,100949.69
2023-04-01T18:45:32.052Z,100957.09
2023-04-01T18:48:05.092Z,100971.16
2023-04-01T18:51:03.716Z,100981.16
2023-04-01T18:53:55.894Z,100990.34
2023-04-01T18:56:52.135Z,100989.81
2023-04-01T18:59:29.539Z,100982.66
2023-04-01T19:02:33.045Z,100969.44
2023-04-01T19:05:18.311Z,100983.63
2023-04-01T19:07:49.478Z,100992.97
2023-04-01T19:10:43.104Z,101031.38
2023-04-01T19:13:41.691Z,101039.53
2023-04-01T19:16:37.736Z,101052.00
2023-04-01T19:19:22.058Z,101066.69
2023-04-01T19:21:54.781Z,101052.00
2023-04-01T19:24:48.130Z,101060.41
2023-04-01T19:27:32.778Z,101089.97
2023-04-01T19:30:33.715Z,101064.66
2023-04-01T19:33:21.938Z,101066.47
2023-04-01T19:36:11.384Z,101062.47
2023-04-01T19:38:41.416Z,101085.72
2023-04-01T19:41:55.860Z,101093.97
2023-04-01T19:44:35.190Z,101107.00
2023-04-01T19:47:16.013Z,101128.69
2023-04-01T19:50:09.854Z,101137.25
2023-04-01T19:52:42.385Z,101149.16
2023-04-01T19:55:37.628Z,101152.03
2023-04-01T19:58:22.200Z,101144.97
2023-04-01T20:00:58.085Z,101121.84
2023-04-01T20:03:45.673Z,101125.28
2023-04-01T20:06:33.722Z,101132.31
2023-04-01T20:09:38.140Z,101137.44
2023-04-01T20:12:15.855Z,101126.72
2023-04-01T20:14:50.265Z,101122.31
2023-04-01T20:17:43.107Z,101130.03
2023-04-01T20:20:13.388Z,101148.94
2023-04-01T20:22:46.201Z,101164.50
2023-04-01T20:25:50.671Z,101175.50
2023-04-01T20:28:20.940Z,101188.13
2023-04-01T20:31:27.458Z,101211.53
2023-04-01T20:34:15.972Z,101214.22
2023-04-01T20:37:08.128Z,101221.53
2023-04-01T20:39:50.576Z,101222.28
2023-04-01T20:42:45.882Z,101229.97
2023-04-01T20:45:18.986Z,101244.22
2023-04-01T20:48:13.240Z,101253.72
2023-04-01T20:50:52.439Z,101223.75
2023-04-01T20:53:57.990Z,101161.59
2023-04-01T20:56:56.574Z,101103.63
2023-04-01T20:59:26.943Z,101087.53
2023-04-01T21:02:03.329Z,101123.09
2023-04-01T21:05:12.094Z,101125.78
2023-04-01T21:07:47.472Z,101144.53
2023-04-01T21:10:26.658Z,101169.13
2023-04-01T21:13:17.665Z,101198.69
2023-04-01T21:16:11.272Z,101215.63
2023-04-01T21:18:59.031Z,101205.22
2023-04-01T21:21:51.379Z,101189.16
2023-04-01T21:24:42.369Z,101186.56
2023-04-01T21:27:21.774Z,101169.94
2023-04-01T21:30:27.526Z,101173.13
2023-04-01T21:32:54.352Z,101165.63
2023-04-01T21:35:42.881Z,101168.41
2023-04-01T21:38:24.300Z,101169.72
2023-04-01T21:41:16.094Z,101162.44
2023-04-01T21:44:11.157Z,101158.41
2023-04-01T21:46:41.104Z,101138.91
2023-04-01T21:49:26.346Z,101140.00
2023-04-01T21:52:20.726Z,101143.66
2023-04-01T21:55:09.278Z,101149.97
2023-04-01T21:58:00.417Z,101149.91
2023-04-01T22:00:37.746Z,101149.03
2023-04-01T22:03:19.799Z,101135.41
2023-04-01T22:06:12.619Z,101138.63
2023-04-01T22:09:02.348Z,101152.03
2023-04-01T22:11:39.591Z,101152.03
2023-04-01T22:14:43.420Z,101148.13
2023-04-01T22:17:26.228Z,101151.22
2023-04-01T22:20:10.405Z,101140.16
2023-04-01T22:22:37.311Z,101143.97
2023-04-01T22:25:23.690Z,101149.47
2023-04-01T22:28:16.330Z,101154.13
2023-04-01T22:30:51.345Z,101147.44
2023-04-01T22:33:37.235Z,101149.75
2023-04-01T22:36:35.239Z,101149.66
2023-04-01T22:39:18.458Z,101141.34
2023-04-01T22:42:05.530Z,101138.69
2023-04-01T22:45:11.898Z,101146.47
2023-04-01T22:48:26.455Z,101146.47
2023-04-01T22:51:14.491Z,101145.13
2023-04-01T22:53:59.830Z,101140.63
2023-04-01T22:56:34.655Z,101129.66
2023-04-01T22:59:11.846Z,101128.84
2023-04-01T23:01:48.485Z,101131.38
2023-04-01T23:04:21.704Z,101133.34
2023-04-01T23:06:54.803Z,101136.03
2023-04-01T23:09:30.679Z,101143.69
2023-04-01T23:12:05.829Z,101146.47
2023-04-01T23:14:38.299Z,101152.41
2023-04-01T23:17:39.179Z,101149.09
2023-04-01T23:20:22.793Z,101140.59
2023-04-01T23:23:12.264Z,101133.88
2023-04-01T23:26:07.286Z,101122.94
2023-04-01T23:28:41.893Z,101111.03
2023-04-01T23:32:01.195Z,101114.06
2023-04-01T23:34:37.735Z,101119.19
2023-04-01T23:37:17.186Z,101133.03
2023-04-01T23:39:46.995Z,101137.97
2023-04-01T23:42:20.897Z,101123.94
2023-04-01T23:44:50.742Z,101130.53
2023-04-01T23:47:23.091Z,101127.28
2023-04-01T23:49:56.158Z,101129.81
2023-04-01T23:52:26.344Z,101129.38
2023-04-01T23:54:59.315Z,101133.03
2023-04-01T23:57:32.137Z,101137.31
